createdAt,value
2023-04-27T00:01:48.772Z,42.23
2023-04-27T00:04:16.891Z,42.85
2023-04-27T00:06:45.048Z,41.89
2023-04-27T00:09:13.042Z,41.55
2023-04-27T00:11:41.184Z,42.53
2023-04-27T00:14:09.053Z,42.67
2023-04-27T00:16:37.100Z,43.02
2023-04-27T00:19:04.762Z,42.05
2023-04-27T00:21:32.749Z,42.02
2023-04-27T00:24:00.407Z,42.10
2023-04-27T00:26:29.563Z,42.08
2023-04-27T00:28:57.302Z,42.10
2023-04-27T00:31:26.876Z,42.60
2023-04-27T00:33:54.482Z,42.71
2023-04-27T00:36:22.480Z,42.56
2023-04-27T00:38:50.101Z,42.38
2023-04-27T00:41:18.087Z,42.71
2023-04-27T00:43:46.323Z,42.89
2023-04-27T00:46:14.859Z,43.23
2023-04-27T00:48:43.056Z,43.79
2023-04-27T00:51:11.082Z,44.19
2023-04-27T00:53:39.026Z,43.97
2023-04-27T00:56:07.609Z,44.63
2023-04-27T00:58:35.353Z,45.03
2023-04-27T01:01:06.002Z,45.15
2023-04-27T01:03:33.841Z,45.42
2023-04-27T01:06:02.068Z,44.91
2023-04-27T01:08:29.840Z,44.87
2023-04-27T01:10:57.899Z,44.79
2023-04-27T01:13:25.636Z,45.21
2023-04-27T01:15:53.691Z,45.31
2023-04-27T01:18:21.291Z,44.95
2023-04-27T01:20:49.341Z,45.31
2023-04-27T01:23:17.521Z,45.25
2023-04-27T01:25:45.763Z,45.33
2023-04-27T01:28:13.428Z,44.38
2023-04-27T01:30:41.405Z,44.95
2023-04-27T01:33:09.060Z,44.64
2023-04-27T01:35:37.295Z,45.31
2023-04-27T01:38:04.902Z,45.65
2023-04-27T01:40:32.863Z,45.84
2023-04-27T01:43:01.178Z,47.35
2023-04-27T01:45:31.061Z,48.05
2023-04-27T01:48:00.934Z,48.32
2023-04-27T01:50:28.970Z,48.20
2023-04-27T01:52:56.684Z,48.44
2023-04-27T01:55:24.587Z,48.71
2023-04-27T01:57:52.288Z,49.49
2023-04-27T02:00:20.597Z,49.58
2023-04-27T02:02:48.347Z,49.91
2023-04-27T02:05:17.658Z,49.56
2023-04-27T02:07:47.285Z,49.28
2023-04-27T02:10:15.267Z,49.66
2023-04-27T02:12:42.917Z,50.13
2023-04-27T02:15:11.126Z,50.63
2023-04-27T02:17:39.755Z,51.13
2023-04-27T02:20:08.121Z,50.81
2023-04-27T02:22:35.803Z,50.41
2023-04-27T02:25:05.639Z,50.84
2023-04-27T02:27:33.424Z,50.65
2023-04-27T02:30:05.492Z,51.00
2023-04-27T02:32:33.776Z,51.71
2023-04-27T02:35:02.242Z,51.84
2023-04-27T02:37:30.815Z,51.68
2023-04-27T02:39:58.825Z,52.08
2023-04-27T02:42:26.683Z,53.13
2023-04-27T02:44:54.715Z,53.34
2023-04-27T02:47:22.314Z,53.80
2023-04-27T02:49:50.261Z,53.89
2023-04-27T02:52:17.913Z,53.89
2023-04-27T02:54:46.006Z,54.25
2023-04-27T02:57:13.703Z,53.80
2023-04-27T02:59:41.713Z,54.73
2023-04-27T03:02:09.638Z,54.88
2023-04-27T03:04:39.005Z,54.44
2023-04-27T03:07:06.756Z,54.61
2023-04-27T03:09:34.739Z,55.47
2023-04-27T03:12:02.823Z,55.28
2023-04-27T03:14:30.838Z,54.56
2023-04-27T03:16:58.640Z,55.42
2023-04-27T03:19:26.597Z,55.57
2023-04-27T03:21:54.158Z,55.59
2023-04-27T03:24:25.688Z,56.17
2023-04-27T03:26:53.429Z,56.42
2023-04-27T03:29:22.328Z,56.39
2023-04-27T03:31:50.054Z,55.81
2023-04-27T03:34:18.039Z,55.75
2023-04-27T03:36:46.290Z,56.53
2023-04-27T03:39:14.438Z,56.92
2023-04-27T03:41:42.349Z,57.13
2023-04-27T03:44:12.725Z,55.61
2023-04-27T03:46:40.415Z,55.99
2023-04-27T03:49:08.957Z,55.93
2023-04-27T03:51:38.534Z,55.15
2023-04-27T03:54:06.394Z,54.36
2023-04-27T03:56:34.076Z,53.70
2023-04-27T03:59:02.048Z,53.28
2023-04-27T04:01:34.395Z,52.26
2023-04-27T04:04:02.607Z,51.38
2023-04-27T04:06:33.120Z,51.44
2023-04-27T04:09:03.644Z,51.36
2023-04-27T04:11:31.771Z,51.64
2023-04-27T04:14:01.275Z,51.23
2023-04-27T04:16:28.882Z,51.41
2023-04-27T04:18:56.685Z,51.95
2023-04-27T04:21:24.873Z,52.46
2023-04-27T04:23:53.061Z,51.99
2023-04-27T04:26:23.679Z,52.92
2023-04-27T04:28:52.577Z,52.43
2023-04-27T04:31:21.972Z,52.76
2023-04-27T04:33:50.695Z,53.51
2023-04-27T04:36:18.664Z,54.11
2023-04-27T04:38:47.402Z,54.96
2023-04-27T04:41:16.693Z,54.95
2023-04-27T04:43:44.602Z,55.83
2023-04-27T04:46:12.087Z,55.40
2023-04-27T04:48:40.066Z,54.84
2023-04-27T04:51:07.724Z,54.92
2023-04-27T04:53:37.548Z,54.33
2023-04-27T04:56:12.313Z,53.61
2023-04-27T04:58:40.538Z,54.09
2023-04-27T05:01:08.640Z,53.37
2023-04-27T05:03:36.742Z,53.91
2023-04-27T05:06:04.493Z,54.37
2023-04-27T05:08:32.442Z,54.90
2023-04-27T05:10:59.966Z,55.04
2023-04-27T05:13:28.284Z,55.50
2023-04-27T05:15:55.862Z,55.42
2023-04-27T05:18:23.879Z,55.54
2023-04-27T05:20:51.379Z,55.04
2023-04-27T05:23:19.235Z,54.31
2023-04-27T05:25:46.665Z,53.27
2023-04-27T05:28:14.689Z,53.12
2023-04-27T05:30:42.628Z,53.46
2023-04-27T05:33:10.553Z,53.87
2023-04-27T05:35:38.038Z,53.49
2023-04-27T05:38:05.955Z,52.64
2023-04-27T05:40:33.492Z,51.96
2023-04-27T05:43:05.699Z,51.00
2023-04-27T05:45:33.582Z,50.66
2023-04-27T05:48:01.569Z,51.24
2023-04-27T05:50:29.146Z,51.14
2023-04-27T05:52:57.019Z,50.15
2023-04-27T05:55:24.533Z,49.44
2023-04-27T05:58:06.682Z,48.21
2023-04-27T06:00:37.385Z,47.61
2023-04-27T06:03:05.378Z,47.94
2023-04-27T06:05:34.723Z,47.55
2023-04-27T06:08:02.915Z,47.46
2023-04-27T06:10:30.642Z,47.44
2023-04-27T06:12:58.425Z,47.36
2023-04-27T06:15:26.811Z,46.56
2023-04-27T06:17:54.728Z,44.90
2023-04-27T06:20:22.391Z,44.90
2023-04-27T06:22:49.795Z,45.15
2023-04-27T06:25:17.632Z,45.24
2023-04-27T06:27:45.198Z,45.69
2023-04-27T06:30:13.165Z,45.53
2023-04-27T06:32:42.726Z,44.53
2023-04-27T06:35:11.106Z,44.33
2023-04-27T06:37:38.690Z,43.59
2023-04-27T06:40:07.123Z,43.64
2023-04-27T06:42:35.000Z,43.57
2023-04-27T06:45:02.957Z,43.25
2023-04-27T06:47:30.632Z,43.15
2023-04-27T06:49:58.485Z,43.45
2023-04-27T06:52:26.108Z,43.28
2023-04-27T06:54:54.257Z,42.25
2023-04-27T06:57:21.947Z,41.01
2023-04-27T06:59:49.785Z,40.19
2023-04-27T07:02:17.659Z,39.13
2023-04-27T07:04:46.971Z,38.01
2023-04-27T07:07:14.664Z,36.81
2023-04-27T07:09:43.845Z,36.69
2023-04-27T07:12:11.510Z,36.63
2023-04-27T07:14:39.621Z,36.21
2023-04-27T07:17:07.118Z,36.22
2023-04-27T07:19:34.966Z,36.63
2023-04-27T07:22:02.645Z,36.80
2023-04-27T07:24:30.470Z,36.43
2023-04-27T07:26:58.235Z,37.55
2023-04-27T07:29:29.521Z,36.99
2023-04-27T07:31:57.178Z,36.22
2023-04-27T07:34:25.168Z,35.85
2023-04-27T07:36:54.748Z,36.92
2023-04-27T07:39:22.828Z,37.65
2023-04-27T07:41:51.896Z,36.24
2023-04-27T07:44:19.910Z,31.78
2023-04-27T07:46:49.155Z,31.97
2023-04-27T07:49:17.197Z,30.53
2023-04-27T07:51:44.724Z,29.17
2023-04-27T07:54:12.657Z,29.33
2023-04-27T07:56:43.321Z,28.88
2023-04-27T07:59:11.746Z,27.72
2023-04-27T08:01:39.751Z,27.95
2023-04-27T08:04:07.909Z,27.69
2023-04-27T08:06:36.543Z,27.70
2023-04-27T08:09:05.248Z,28.04
2023-04-27T08:11:32.834Z,28.35
2023-04-27T08:14:00.669Z,27.77
2023-04-27T08:16:28.884Z,27.74
2023-04-27T08:18:58.538Z,28.31
2023-04-27T08:21:28.757Z,27.98
2023-04-27T08:23:56.697Z,27.66
2023-04-27T08:26:26.276Z,27.25
2023-04-27T08:28:56.497Z,27.43
2023-04-27T08:31:24.654Z,26.76
2023-04-27T08:33:53.133Z,26.74
2023-04-27T08:36:29.327Z,27.00
2023-04-27T08:38:57.174Z,26.96
2023-04-27T08:41:24.754Z,26.46
2023-04-27T08:43:53.804Z,25.74
2023-04-27T08:46:22.080Z,26.50
2023-04-27T08:48:51.283Z,27.40
2023-04-27T08:51:18.833Z,26.84
2023-04-27T08:53:51.765Z,26.63
2023-04-27T08:56:19.828Z,24.36
2023-04-27T08:58:47.624Z,24.44
2023-04-27T09:01:15.250Z,25.34
2023-04-27T09:03:43.333Z,24.87
2023-04-27T09:06:11.384Z,26.25
2023-04-27T09:08:47.468Z,26.51
2023-04-27T09:11:16.148Z,26.55
2023-04-27T09:13:45.662Z,26.62
2023-04-27T09:16:17.303Z,25.79
2023-04-27T09:18:45.879Z,25.89
2023-04-27T09:21:22.212Z,26.48
2023-04-27T09:23:50.144Z,25.50
2023-04-27T09:26:22.365Z,25.72
2023-04-27T09:28:51.558Z,26.28
2023-04-27T09:31:19.257Z,26.38
2023-04-27T09:33:54.901Z,25.98
2023-04-27T09:36:22.829Z,26.17
2023-04-27T09:38:52.779Z,26.17
2023-04-27T09:41:20.228Z,25.96
2023-04-27T09:43:48.099Z,27.42
2023-04-27T09:46:16.101Z,27.82
2023-04-27T09:48:43.928Z,26.48
2023-04-27T09:51:11.513Z,25.96
2023-04-27T09:53:45.293Z,26.68
2023-04-27T09:56:28.553Z,27.17
2023-04-27T09:59:15.493Z,27.01
2023-04-27T10:01:47.672Z,27.15
2023-04-27T10:04:34.663Z,27.10
2023-04-27T10:07:02.276Z,27.20
2023-04-27T10:09:51.524Z,26.63
2023-04-27T10:12:20.658Z,27.21
2023-04-27T10:14:56.075Z,28.74
2023-04-27T10:17:31.469Z,28.00
2023-04-27T10:20:10.076Z,27.89
2023-04-27T10:22:44.868Z,27.46
2023-04-27T10:25:16.667Z,25.04
2023-04-27T10:27:58.253Z,24.95
2023-04-27T10:30:27.574Z,24.15
2023-04-27T10:32:56.579Z,24.03
2023-04-27T10:35:34.869Z,23.78
2023-04-27T10:38:06.671Z,23.64
2023-04-27T10:40:36.619Z,22.76
2023-04-27T10:43:10.496Z,22.55
2023-04-27T10:45:38.544Z,21.68
2023-04-27T10:48:06.246Z,23.17
2023-04-27T10:50:34.247Z,22.37
2023-04-27T10:53:03.922Z,23.24
2023-04-27T10:55:33.320Z,23.08
2023-04-27T10:58:02.134Z,24.00
2023-04-27T11:00:32.631Z,23.01
2023-04-27T11:03:17.246Z,22.72
2023-04-27T11:05:47.111Z,23.04
2023-04-27T11:08:16.288Z,23.89
2023-04-27T11:10:50.225Z,24.60
2023-04-27T11:13:19.296Z,24.48
2023-04-27T11:15:58.143Z,23.86
2023-04-27T11:18:26.735Z,24.60
2023-04-27T11:21:07.865Z,25.49
2023-04-27T11:23:38.325Z,24.35
2023-04-27T11:26:19.561Z,24.28
2023-04-27T11:29:00.169Z,24.39
2023-04-27T11:31:38.355Z,24.40
2023-04-27T11:34:07.954Z,24.87
2023-04-27T11:36:36.447Z,26.25
2023-04-27T11:39:06.596Z,26.50
2023-04-27T11:41:35.884Z,26.79
2023-04-27T11:44:07.848Z,25.53
2023-04-27T11:46:37.038Z,24.43
2023-04-27T11:49:05.170Z,24.40
2023-04-27T11:51:33.667Z,25.08
2023-04-27T11:54:05.148Z,25.53
2023-04-27T11:56:34.887Z,26.56
2023-04-27T11:59:02.490Z,26.61
2023-04-27T12:01:37.481Z,26.28
2023-04-27T12:04:05.867Z,26.42
2023-04-27T12:06:34.046Z,26.16
2023-04-27T12:09:01.849Z,25.51
2023-04-27T12:11:29.631Z,26.43
2023-04-27T12:13:57.589Z,26.81
2023-04-27T12:16:25.570Z,26.80
2023-04-27T12:18:53.500Z,27.39
2023-04-27T12:21:21.495Z,26.61
2023-04-27T12:23:48.997Z,25.48
2023-04-27T12:26:16.816Z,25.89
2023-04-27T12:28:44.371Z,26.35
2023-04-27T12:31:14.371Z,26.72
2023-04-27T12:33:42.190Z,27.05
2023-04-27T12:36:10.072Z,27.00
2023-04-27T12:38:37.724Z,26.06
2023-04-27T12:41:05.866Z,27.18
2023-04-27T12:43:33.449Z,27.88
2023-04-27T12:46:01.402Z,26.77
2023-04-27T12:48:29.084Z,26.86
2023-04-27T12:50:57.019Z,27.07
2023-04-27T12:53:24.672Z,26.00
2023-04-27T12:55:53.614Z,25.74
2023-04-27T12:58:21.747Z,24.54
2023-04-27T13:00:49.581Z,25.07
2023-04-27T13:03:17.373Z,25.23
2023-04-27T13:05:45.850Z,24.75
2023-04-27T13:08:13.461Z,26.27
2023-04-27T13:10:42.311Z,26.06
2023-04-27T13:13:09.899Z,25.08
2023-04-27T13:15:38.824Z,26.22
2023-04-27T13:18:06.850Z,25.36
2023-04-27T13:20:34.836Z,25.70
2023-04-27T13:23:03.145Z,26.20
2023-04-27T13:25:31.170Z,26.30
2023-04-27T13:27:58.762Z,26.47
2023-04-27T13:30:26.651Z,25.89
2023-04-27T13:32:54.299Z,26.85
2023-04-27T13:35:23.937Z,27.23
2023-04-27T13:37:53.988Z,26.12
2023-04-27T13:40:22.279Z,25.66
2023-04-27T13:42:49.818Z,24.60
2023-04-27T13:45:17.750Z,25.07
2023-04-27T13:47:45.418Z,25.98
2023-04-27T13:50:13.312Z,27.32
2023-04-27T13:52:41.088Z,27.64
2023-04-27T13:55:11.001Z,27.02
2023-04-27T13:57:38.550Z,26.41
2023-04-27T14:00:11.731Z,25.73
2023-04-27T14:02:39.697Z,24.32
2023-04-27T14:05:08.793Z,23.36
2023-04-27T14:07:36.273Z,23.63
2023-04-27T14:10:04.744Z,23.80
2023-04-27T14:12:32.441Z,24.33
2023-04-27T14:15:02.650Z,24.22
2023-04-27T14:17:30.224Z,25.91
2023-04-27T14:19:59.424Z,24.47
2023-04-27T14:22:26.975Z,24.86
2023-04-27T14:24:56.672Z,25.37
2023-04-27T14:27:24.362Z,26.56
2023-04-27T14:29:52.208Z,27.32
2023-04-27T14:32:19.911Z,26.40
2023-04-27T14:34:49.078Z,25.81
2023-04-27T14:37:16.660Z,25.62
2023-04-27T14:39:45.380Z,25.72
2023-04-27T14:42:13.118Z,25.67
2023-04-27T14:44:41.115Z,25.33
2023-04-27T14:47:08.698Z,25.14
2023-04-27T14:49:36.725Z,25.25
2023-04-27T14:52:06.776Z,24.82
2023-04-27T14:54:35.781Z,24.99
2023-04-27T14:57:03.425Z,26.12
2023-04-27T14:59:32.644Z,25.68
2023-04-27T15:02:00.702Z,25.34
2023-04-27T15:04:28.834Z,25.35
2023-04-27T15:06:56.541Z,24.95
2023-04-27T15:09:25.619Z,25.30
2023-04-27T15:11:53.227Z,25.34
2023-04-27T15:14:21.086Z,26.35
2023-04-27T15:16:49.682Z,26.49
2023-04-27T15:19:17.597Z,26.63
2023-04-27T15:21:45.131Z,26.14
2023-04-27T15:24:13.034Z,25.65
2023-04-27T15:26:41.369Z,26.62
2023-04-27T15:29:09.234Z,26.83
2023-04-27T15:31:37.253Z,26.15
2023-04-27T15:34:06.341Z,26.44
2023-04-27T15:36:34.789Z,27.13
2023-04-27T15:39:02.710Z,26.63
2023-04-27T15:41:30.219Z,27.05
2023-04-27T15:43:59.277Z,26.22
2023-04-27T15:46:26.890Z,26.24
2023-04-27T15:48:54.819Z,25.88
2023-04-27T15:51:22.346Z,25.96
2023-04-27T15:53:50.206Z,25.86
2023-04-27T15:56:17.803Z,26.64
2023-04-27T15:58:47.094Z,26.54
2023-04-27T16:01:14.727Z,26.60
2023-04-27T16:03:53.237Z,26.92
2023-04-27T16:06:21.022Z,26.65
2023-04-27T16:08:49.012Z,26.74
2023-04-27T16:11:20.036Z,26.36
2023-04-27T16:13:47.937Z,27.26
2023-04-27T16:16:15.738Z,27.78
2023-04-27T16:18:43.820Z,28.18
2023-04-27T16:21:11.520Z,28.50
2023-04-27T16:23:39.295Z,27.89
2023-04-27T16:26:06.874Z,28.04
2023-04-27T16:28:35.069Z,28.14
2023-04-27T16:31:02.622Z,28.14
2023-04-27T16:33:30.746Z,28.36
2023-04-27T16:35:58.237Z,28.46
2023-04-27T16:38:26.170Z,28.77
2023-04-27T16:40:56.217Z,28.33
2023-04-27T16:43:25.560Z,29.33
2023-04-27T16:45:53.160Z,29.42
2023-04-27T16:48:22.542Z,29.24
2023-04-27T16:50:50.001Z,29.69
2023-04-27T16:53:21.203Z,30.05
2023-04-27T16:55:48.909Z,30.05
2023-04-27T16:58:16.792Z,30.83
2023-04-27T17:00:44.355Z,30.78
2023-04-27T17:03:12.358Z,30.66
2023-04-27T17:05:39.980Z,31.26
2023-04-27T17:08:08.867Z,31.09
2023-04-27T17:10:36.979Z,32.17
2023-04-27T17:13:05.144Z,31.88
2023-04-27T17:15:32.685Z,31.65
2023-04-27T17:18:02.731Z,32.66
2023-04-27T17:20:30.592Z,32.90
2023-04-27T17:22:58.434Z,33.07
2023-04-27T17:25:25.940Z,33.44
2023-04-27T17:27:53.813Z,32.89
2023-04-27T17:30:21.422Z,33.97
2023-04-27T17:32:49.316Z,34.35
2023-04-27T17:35:16.882Z,34.15
2023-04-27T17:37:44.759Z,34.38
2023-04-27T17:40:12.891Z,35.18
2023-04-27T17:42:40.768Z,34.62
2023-04-27T17:45:11.764Z,34.25
2023-04-27T17:47:39.565Z,33.33
2023-04-27T17:50:07.600Z,32.64
2023-04-27T17:52:35.926Z,32.33
2023-04-27T17:55:03.505Z,32.20
2023-04-27T17:57:31.261Z,31.86
2023-04-27T17:59:58.858Z,32.33
2023-04-27T18:02:27.018Z,33.00
2023-04-27T18:04:54.670Z,32.92
2023-04-27T18:07:23.488Z,33.18
2023-04-27T18:09:51.121Z,32.80
2023-04-27T18:12:19.059Z,33.25
2023-04-27T18:14:46.608Z,33.51
2023-04-27T18:17:14.546Z,33.18
2023-04-27T18:19:42.069Z,32.70
2023-04-27T18:22:10.198Z,33.63
2023-04-27T18:24:37.742Z,33.51
2023-04-27T18:27:05.676Z,33.86
2023-04-27T18:29:33.231Z,33.54
2023-04-27T18:32:01.920Z,33.38
2023-04-27T18:34:29.505Z,33.83
2023-04-27T18:36:57.449Z,33.89
2023-04-27T18:39:25.151Z,33.82
2023-04-27T18:41:53.190Z,34.01
2023-04-27T18:44:20.798Z,34.27
2023-04-27T18:46:48.693Z,34.55
2023-04-27T18:49:16.571Z,34.38
2023-04-27T18:51:45.585Z,34.79
2023-04-27T18:54:13.838Z,34.72
2023-04-27T18:56:41.805Z,34.79
2023-04-27T18:59:09.321Z,34.63
2023-04-27T19:01:38.231Z,34.48
2023-04-27T19:04:06.799Z,34.55
2023-04-27T19:06:34.755Z,34.58
2023-04-27T19:09:02.312Z,35.26
2023-04-27T19:11:30.466Z,35.77
2023-04-27T19:13:59.019Z,36.20
2023-04-27T19:16:27.131Z,36.50
2023-04-27T19:18:54.725Z,36.69
2023-04-27T19:21:22.557Z,36.39
2023-04-27T19:23:50.275Z,36.83
2023-04-27T19:26:18.160Z,36.63
2023-04-27T19:28:45.751Z,36.49
2023-04-27T19:31:13.955Z,36.54
2023-04-27T19:36:13.651Z,36.16
2023-04-27T19:38:41.469Z,36.33
2023-04-27T19:41:10.861Z,36.34
2023-04-27T19:43:38.496Z,36.07
2023-04-27T19:46:06.467Z,36.19
2023-04-27T19:48:34.198Z,36.04
2023-04-27T19:51:02.088Z,36.08
2023-04-27T19:53:30.220Z,36.06
2023-04-27T19:56:00.587Z,36.06
2023-04-27T19:58:28.407Z,36.16
2023-04-27T20:00:56.389Z,35.76
2023-04-27T20:03:24.179Z,35.47
2023-04-27T20:05:52.808Z,35.54
2023-04-27T20:08:20.794Z,35.44
2023-04-27T20:10:48.579Z,35.33
2023-04-27T20:13:16.213Z,35.20
2023-04-27T20:15:44.634Z,35.58
2023-04-27T20:18:12.464Z,35.55
2023-04-27T20:20:42.354Z,35.09
2023-04-27T20:23:10.010Z,34.60
2023-04-27T20:25:38.240Z,34.74
2023-04-27T20:28:05.898Z,34.43
2023-04-27T20:30:33.714Z,34.84
2023-04-27T20:33:03.794Z,34.54
2023-04-27T20:35:31.842Z,34.98
2023-04-27T20:38:00.338Z,35.13
2023-04-27T20:40:28.279Z,34.92
2023-04-27T20:42:55.739Z,35.04
2023-04-27T20:45:24.038Z,34.88
2023-04-27T20:47:52.347Z,34.84
2023-04-27T20:50:20.209Z,34.62
2023-04-27T20:52:47.700Z,35.36
2023-04-27T20:55:16.773Z,35.25
2023-04-27T20:57:44.399Z,34.81
2023-04-27T21:00:13.197Z,35.01
2023-04-27T21:02:41.141Z,34.71
2023-04-27T21:05:09.167Z,35.10
2023-04-27T21:07:36.894Z,34.96
2023-04-27T21:10:07.154Z,35.17
2023-04-27T21:12:34.823Z,35.03
2023-04-27T21:15:04.084Z,35.02
2023-04-27T21:17:31.678Z,34.80
2023-04-27T21:19:59.510Z,34.75
2023-04-27T21:22:27.131Z,34.63
2023-04-27T21:24:55.009Z,34.83
2023-04-27T21:27:22.682Z,35.27
2023-04-27T21:29:50.652Z,35.15
2023-04-27T21:32:18.247Z,35.37
2023-04-27T21:34:46.054Z,35.51
2023-04-27T21:37:13.632Z,35.69
2023-04-27T21:39:41.626Z,35.46
2023-04-27T21:42:09.253Z,35.51
2023-04-27T21:44:37.085Z,34.84
2023-04-27T21:47:04.608Z,35.47
2023-04-27T21:49:32.450Z,34.91
2023-04-27T21:51:59.963Z,35.44
2023-04-27T21:54:27.864Z,35.61
2023-04-27T21:56:55.407Z,36.40
2023-04-27T21:59:23.278Z,36.26
2023-04-27T22:01:51.085Z,36.07
2023-04-27T22:04:20.492Z,36.38
2023-04-27T22:06:49.010Z,36.71
2023-04-27T22:09:17.167Z,36.74
2023-04-27T22:11:44.875Z,36.63
2023-04-27T22:14:12.920Z,37.60
2023-04-27T22:16:40.732Z,37.66
2023-04-27T22:19:09.760Z,38.50
2023-04-27T22:21:37.736Z,38.88
2023-04-27T22:24:05.981Z,39.29
2023-04-27T22:26:33.557Z,39.02
2023-04-27T22:29:01.477Z,40.21
2023-04-27T22:31:30.332Z,40.66
2023-04-27T22:33:58.703Z,40.39
2023-04-27T22:36:26.875Z,40.75
2023-04-27T22:38:54.861Z,41.16
2023-04-27T22:41:22.658Z,41.27
2023-04-27T22:43:50.548Z,41.37
2023-04-27T22:46:18.054Z,41.82
2023-04-27T22:48:47.662Z,40.48
2023-04-27T22:51:15.098Z,40.96
2023-04-27T22:53:42.983Z,41.11
2023-04-27T22:56:10.652Z,41.96
2023-04-27T22:58:39.027Z,41.13
2023-04-27T23:01:07.070Z,40.62
2023-04-27T23:03:36.289Z,40.06
2023-04-27T23:06:05.250Z,39.35
2023-04-27T23:08:34.172Z,38.80
2023-04-27T23:11:03.098Z,38.20
2023-04-27T23:13:32.004Z,38.85
2023-04-27T23:15:59.652Z,38.19
2023-04-27T23:18:28.545Z,37.78
2023-04-27T23:20:56.064Z,37.98
2023-04-27T23:23:24.027Z,37.05
2023-04-27T23:25:51.587Z,37.76
2023-04-27T23:28:19.694Z,36.99
2023-04-27T23:30:56.910Z,37.04
2023-04-27T23:33:24.854Z,36.54
2023-04-27T23:35:53.313Z,36.29
2023-04-27T23:38:23.195Z,37.87
2023-04-27T23:40:50.775Z,37.52
2023-04-27T23:43:18.615Z,37.13
2023-04-27T23:45:52.883Z,37.86
2023-04-27T23:48:21.862Z,37.46
2023-04-27T23:50:49.595Z,37.89
2023-04-27T23:53:18.419Z,37.50
2023-04-27T23:55:45.946Z,38.56
2023-04-27T23:58:13.728Z,38.15
